Terminal Aerodrome Forecast
Issued by NWS

Home | Current Version | Previous Version | Text Only | Print | Product List | Glossary On
Versions: 1 2 3 4 5 6 7 8 9 10 11 12 13 14 15 16 17 18 19 20 21 22 23 24 25 26
324
FTUS46 KSGX 270815 AAA
TAFSAN
TAF AMD
KSAN 270815Z 2708/2812 09005KT P6SM VCSH BKN008 OVC015
     FM271000 16008KT P6SM -SHRA BKN015 OVC035
     FM271900 19011KT P6SM -SHRA BKN015 OVC030
     FM280200 27008KT P6SM -SHRA BKN015 OVC030
     FM280500 27006KT P6SM VCSH SCT015 BKN030=

USA.gov is the U.S. government's official web portal to all federal, state and local government web resources and services.